Time;durP1;ratioP1;P1;durP2;ratioP2;P2;SDS_P1;SDS_P2;PMS_P1;PMS_P2;Temp;Humidity;BMP_temperature;BMP_pressure;BME280_temperature;BME280_humidity;BME280_pressure;Samples;Min_cycle;Max_cycle;Signal;HPM_P1;HPM_P2
2021/04/20 00:00:21;;;;;;;10.02;5.13;;;14.30;44.70;;;;;;4993671;28;20026;-73
2021/04/20 00:02:47;;;;;;;7.80;4.18;;;14.30;44.90;;;;;;4994246;28;20113;-72
2021/04/20 00:05:18;;;;;;;8.00;4.60;;;14.20;45.00;;;;;;4993608;28;20030;-72
2021/04/20 00:07:45;;;;;;;10.43;4.68;;;14.20;45.10;;;;;;4993821;28;20053;-72
2021/04/20 00:10:14;;;;;;;10.80;4.88;;;14.20;45.10;;;;;;4993818;28;20022;-72
2021/04/20 00:12:41;;;;;;;8.38;4.50;;;14.20;45.20;;;;;;4993911;28;20029;-72
2021/04/20 00:15:10;;;;;;;10.20;4.25;;;14.10;45.40;;;;;;4993286;28;20030;-72
2021/04/20 00:17:36;;;;;;;8.70;4.40;;;14.10;45.60;;;;;;4993689;28;20030;-73
2021/04/20 00:20:06;;;;;;;8.70;4.65;;;14.10;45.90;;;;;;4993487;28;20038;-72
2021/04/20 00:22:33;;;;;;;8.88;4.80;;;14.00;46.20;;;;;;4993598;28;20206;-72
2021/04/20 00:24:59;;;;;;;9.38;5.35;;;14.00;46.40;;;;;;4993606;28;20289;-73
2021/04/20 00:27:25;;;;;;;11.35;6.28;;;14.00;46.70;;;;;;4993504;28;20054;-73
2021/04/20 00:29:51;;;;;;;10.15;6.05;;;14.00;47.10;;;;;;4993321;28;20033;-72
2021/04/20 00:32:17;;;;;;;11.52;6.32;;;14.00;47.30;;;;;;4993124;28;20483;-72
2021/04/20 00:34:43;;;;;;;9.65;5.55;;;13.90;47.50;;;;;;4993517;28;20505;-72
2021/04/20 00:37:09;;;;;;;10.25;5.95;;;13.90;47.80;;;;;;4992857;28;20030;-73
2021/04/20 00:39:37;;;;;;;11.68;6.15;;;13.90;48.20;;;;;;4992977;28;20376;-73
2021/04/20 00:42:05;;;;;;;11.68;6.03;;;13.90;48.40;;;;;;4993161;28;20101;-73
2021/04/20 00:44:31;;;;;;;10.68;6.63;;;13.90;48.60;;;;;;4993035;28;20026;-73
2021/04/20 00:46:58;;;;;;;10.13;6.20;;;13.90;48.90;;;;;;4991907;28;20054;-72
2021/04/20 00:49:25;;;;;;;15.07;9.77;;;13.80;49.00;;;;;;4992677;28;20026;-72
2021/04/20 00:51:52;;;;;;;12.80;7.85;;;13.70;50.10;;;;;;4993079;28;20450;-72
2021/04/20 00:54:19;;;;;;;12.68;8.02;;;13.60;50.40;;;;;;4992722;28;20062;-72
2021/04/20 00:56:45;;;;;;;12.55;7.40;;;13.50;50.10;;;;;;4992811;28;20038;-73
2021/04/20 00:59:12;;;;;;;12.05;6.50;;;13.50;50.40;;;;;;4992709;28;20041;-72
2021/04/20 01:01:38;;;;;;;9.95;6.10;;;13.50;50.30;;;;;;4991618;28;20041;-72
2021/04/20 01:04:05;;;;;;;10.80;6.10;;;13.50;50.30;;;;;;4992784;28;20034;-72
2021/04/20 01:06:31;;;;;;;12.48;7.57;;;13.50;50.20;;;;;;5024080;28;20030;-72
2021/04/20 01:08:57;;;;;;;15.38;8.15;;;13.50;50.30;;;;;;4992482;28;20035;-72
2021/04/20 01:11:24;;;;;;;11.75;7.85;;;13.40;50.70;;;;;;4992837;28;20023;-72
2021/04/20 01:13:51;;;;;;;11.23;6.82;;;13.40;50.60;;;;;;4992447;28;20033;-72
2021/04/20 01:16:21;;;;;;;10.82;6.72;;;13.30;50.60;;;;;;5023860;28;20027;-72
2021/04/20 01:18:47;;;;;;;19.88;10.20;;;13.30;50.70;;;;;;4992630;28;20022;-72
2021/04/20 01:21:14;;;;;;;16.98;10.23;;;13.30;51.40;;;;;;4992354;28;20367;-72
2021/04/20 01:23:51;;;;;;;13.13;9.60;;;13.20;51.70;;;;;;4992178;28;20030;-73
2021/04/20 01:26:19;;;;;;;11.90;7.82;;;13.10;51.90;;;;;;4992119;28;20529;-73
2021/04/20 01:28:45;;;;;;;13.32;7.55;;;13.00;51.90;;;;;;4992283;28;20057;-72
2021/04/20 01:31:15;;;;;;;12.02;7.25;;;13.00;51.90;;;;;;4992173;28;20030;-73
2021/04/20 01:33:44;;;;;;;11.90;7.20;;;13.00;51.90;;;;;;4992252;28;20023;-73
2021/04/20 01:36:12;;;;;;;10.98;7.18;;;13.00;51.90;;;;;;4992361;28;20497;-73
2021/04/20 01:38:44;;;;;;;11.93;8.38;;;12.90;52.00;;;;;;4991841;28;20387;-73
2021/04/20 01:41:10;;;;;;;11.07;6.97;;;12.90;52.20;;;;;;4979150;28;20058;-73
2021/04/20 01:43:37;;;;;;;10.68;6.97;;;12.90;52.00;;;;;;5023614;28;20035;-73
2021/04/20 01:46:04;;;;;;;11.32;7.50;;;12.90;52.00;;;;;;4992105;28;20027;-73
2021/04/20 01:48:31;;;;;;;13.43;8.60;;;12.90;52.00;;;;;;4992118;28;20058;-73
2021/04/20 01:50:57;;;;;;;13.52;8.77;;;12.90;52.30;;;;;;4992230;28;20202;-72
2021/04/20 01:53:24;;;;;;;12.68;7.28;;;12.80;52.10;;;;;;4990547;28;20309;-73
2021/04/20 01:55:59;;;;;;;10.75;6.82;;;12.80;52.10;;;;;;4991688;28;20453;-73
2021/04/20 01:58:28;;;;;;;11.50;6.90;;;12.80;52.10;;;;;;5022924;28;20494;-72
2021/04/20 02:00:55;;;;;;;13.00;7.47;;;12.80;52.20;;;;;;4991559;28;20038;-72
2021/04/20 02:03:26;;;;;;;10.98;7.28;;;12.80;52.30;;;;;;4991593;28;20060;-72
2021/04/20 02:05:53;;;;;;;11.05;6.75;;;12.80;52.30;;;;;;4991966;28;20101;-72
2021/04/20 02:08:20;;;;;;;12.25;7.60;;;12.80;52.20;;;;;;4991340;28;20034;-72
2021/04/20 02:10:48;;;;;;;11.38;7.38;;;12.80;52.30;;;;;;4991547;28;20026;-72
2021/04/20 02:13:15;;;;;;;12.07;7.63;;;12.80;52.50;;;;;;4991468;28;20022;-72
2021/04/20 02:15:42;;;;;;;10.65;7.50;;;12.80;52.50;;;;;;4986591;28;20019;-72
2021/04/20 02:18:09;;;;;;;13.60;8.98;;;12.80;52.50;;;;;;4985904;28;20049;-72
2021/04/20 02:20:37;;;;;;;12.85;7.50;;;12.70;52.70;;;;;;4991450;28;20105;-72
2021/04/20 02:23:03;;;;;;;12.52;7.82;;;12.70;52.90;;;;;;4991628;28;20030;-73
2021/04/20 02:25:30;;;;;;;12.05;7.10;;;12.70;52.90;;;;;;4991183;28;20101;-72
2021/04/20 02:27:56;;;;;;;12.25;7.80;;;12.60;52.80;;;;;;4991521;28;20092;-73
2021/04/20 02:30:24;;;;;;;11.50;7.78;;;12.60;52.80;;;;;;4991247;28;20015;-73
2021/04/20 02:32:51;;;;;;;11.27;7.20;;;12.60;53.00;;;;;;4991792;28;20019;-73
2021/04/20 02:35:19;;;;;;;11.82;6.95;;;12.60;53.00;;;;;;4991160;28;20026;-73
2021/04/20 02:37:46;;;;;;;12.65;7.22;;;12.60;53.10;;;;;;4991421;28;20041;-73
2021/04/20 02:40:22;;;;;;;11.18;7.10;;;12.60;53.00;;;;;;4990927;28;20101;-73
2021/04/20 02:42:51;;;;;;;12.27;7.00;;;12.60;53.10;;;;;;4991722;28;20040;-73
2021/04/20 02:45:20;;;;;;;12.50;7.38;;;12.60;53.20;;;;;;4991102;28;20027;-73
2021/04/20 02:47:46;;;;;;;10.88;6.65;;;12.60;53.20;;;;;;4989940;28;20026;-72
2021/04/20 02:50:15;;;;;;;11.25;6.78;;;12.50;53.20;;;;;;4991027;28;20549;-73
2021/04/20 02:52:45;;;;;;;12.13;7.13;;;12.50;53.20;;;;;;5022281;28;20494;-72
2021/04/20 02:55:12;;;;;;;10.60;6.60;;;12.50;53.30;;;;;;4990989;28;20026;-72
2021/04/20 02:57:41;;;;;;;12.38;7.45;;;12.50;53.30;;;;;;4991084;28;20050;-73
2021/04/20 03:00:11;;;;;;;11.55;7.13;;;12.50;53.40;;;;;;4991582;28;20030;-73
2021/04/20 03:02:39;;;;;;;11.80;7.20;;;12.50;53.60;;;;;;4989928;28;20031;-72
2021/04/20 03:05:12;;;;;;;12.45;7.97;;;12.50;53.50;;;;;;4990014;28;20041;-72
2021/04/20 03:07:38;;;;;;;12.75;7.60;;;12.50;53.60;;;;;;4989656;28;20395;-73
2021/04/20 03:10:05;;;;;;;11.27;7.10;;;12.50;53.70;;;;;;5022735;28;20026;-72
2021/04/20 03:12:32;;;;;;;12.95;8.45;;;12.50;53.80;;;;;;4992273;28;20050;-72
2021/04/20 03:15:00;;;;;;;10.15;6.90;;;12.50;53.90;;;;;;4994889;28;20054;-72
2021/04/20 03:17:27;;;;;;;11.68;7.55;;;12.50;53.90;;;;;;5026867;28;20033;-72
2021/04/20 03:19:55;;;;;;;11.93;7.38;;;12.50;53.90;;;;;;4995614;28;20029;-72
2021/04/20 03:22:24;;;;;;;11.60;6.65;;;12.40;53.90;;;;;;4995502;28;20034;-72
2021/04/20 03:25:05;;;;;;;10.52;6.57;;;12.50;54.10;;;;;;4995157;28;20018;-73
2021/04/20 03:27:36;;;;;;;10.98;7.20;;;12.40;54.00;;;;;;4993763;28;20022;-72
2021/04/20 03:30:04;;;;;;;13.32;7.38;;;12.40;54.20;;;;;;4995167;28;20030;-72
2021/04/20 03:32:31;;;;;;;12.10;7.15;;;12.40;54.20;;;;;;5009553;28;20030;-73
2021/04/20 03:35:05;;;;;;;11.63;7.95;;;12.40;54.30;;;;;;4994813;28;20506;-73
2021/04/20 03:37:51;;;;;;;11.82;7.32;;;12.40;54.30;;;;;;4994859;28;20084;-73
2021/04/20 03:40:21;;;;;;;9.85;6.78;;;12.40;54.50;;;;;;4994920;28;20030;-73
2021/04/20 03:42:53;;;;;;;10.57;7.40;;;12.40;54.40;;;;;;4995135;28;20032;-73
2021/04/20 03:45:33;;;;;;;10.63;6.78;;;12.40;54.50;;;;;;4993667;28;20033;-72
2021/04/20 03:48:14;;;;;;;11.48;7.00;;;12.40;54.60;;;;;;4995186;28;20034;-72
2021/04/20 03:50:49;;;;;;;12.65;7.55;;;12.40;54.60;;;;;;4995018;28;20029;-72
2021/04/20 03:53:18;;;;;;;11.00;7.05;;;12.40;54.70;;;;;;4994887;28;20023;-72
2021/04/20 03:55:49;;;;;;;12.85;9.02;;;12.40;54.70;;;;;;4994430;28;20018;-73
2021/04/20 03:58:16;;;;;;;;;;;12.40;54.90;;;;;;4995423;28;20045;-72
2021/04/20 04:00:45;;;;;;;12.90;7.78;;;12.40;55.20;;;;;;4994868;28;19948;-72
2021/04/20 04:03:13;;;;;;;11.02;7.38;;;12.40;55.00;;;;;;4994985;28;20033;-72
2021/04/20 04:05:40;;;;;;;19.55;11.10;;;12.40;55.30;;;;;;4994581;28;20033;-72
2021/04/20 04:08:07;;;;;;;18.58;11.68;;;12.40;55.70;;;;;;4994439;28;20399;-72
2021/04/20 04:10:36;;;;;;;13.55;7.88;;;12.30;56.10;;;;;;4994389;28;20474;-72
2021/04/20 04:13:08;;;;;;;13.43;10.15;;;12.30;55.90;;;;;;4994550;28;20026;-73
2021/04/20 04:15:36;;;;;;;13.05;8.30;;;12.20;56.10;;;;;;4994608;28;20033;-73
2021/04/20 04:18:07;;;;;;;15.60;10.95;;;12.20;56.00;;;;;;4994669;28;20034;-72
2021/04/20 04:20:34;;;;;;;15.90;10.88;;;12.30;56.50;;;;;;4994189;28;20506;-73
2021/04/20 04:23:02;;;;;;;17.10;11.45;;;12.20;56.60;;;;;;5021346;28;20033;-73
2021/04/20 04:25:57;;;;;;;16.70;10.82;;;12.20;56.50;;;;;;4993564;28;20113;-73
2021/04/20 04:28:24;;;;;;;12.55;8.32;;;12.20;56.50;;;;;;4993414;28;20042;-73
2021/04/20 04:30:51;;;;;;;14.43;10.10;;;12.20;56.40;;;;;;4994517;28;20027;-73
2021/04/20 04:33:19;;;;;;;11.30;7.20;;;12.20;56.40;;;;;;5009225;28;20029;-73
2021/04/20 04:35:48;;;;;;;11.77;7.43;;;12.30;56.30;;;;;;4993907;28;20019;-73
2021/04/20 04:38:15;;;;;;;11.65;7.57;;;12.30;56.20;;;;;;4992339;28;20030;-73
2021/04/20 04:40:42;;;;;;;13.50;8.20;;;12.30;56.20;;;;;;4994084;28;20026;-73
2021/04/20 04:43:09;;;;;;;10.90;7.00;;;12.30;56.20;;;;;;4994027;28;20129;-73
2021/04/20 04:45:36;;;;;;;11.85;7.50;;;12.30;56.10;;;;;;4980262;28;20058;-72
2021/04/20 04:48:03;;;;;;;14.68;7.90;;;12.30;56.10;;;;;;4994080;28;20026;-72
2021/04/20 04:50:30;;;;;;;11.50;7.47;;;12.30;56.20;;;;;;4993304;28;20081;-73
2021/04/20 04:52:57;;;;;;;13.15;7.25;;;12.30;56.10;;;;;;4993772;28;20490;-73
2021/04/20 04:55:24;;;;;;;12.38;8.38;;;12.30;56.10;;;;;;5008528;28;20031;-72
2021/04/20 04:57:51;;;;;;;12.95;7.25;;;12.30;56.10;;;;;;4993470;28;20046;-72
2021/04/20 05:00:18;;;;;;;11.07;7.05;;;12.30;56.10;;;;;;4993566;28;20505;-72
2021/04/20 05:02:45;;;;;;;11.68;7.15;;;12.30;56.30;;;;;;4993616;28;20029;-72
2021/04/20 05:05:14;;;;;;;12.48;7.85;;;12.40;56.30;;;;;;4993179;28;20035;-71
2021/04/20 05:07:42;;;;;;;13.35;7.57;;;12.30;56.20;;;;;;4993259;28;20026;-72
2021/04/20 05:10:11;;;;;;;10.85;7.07;;;12.30;56.30;;;;;;4992336;28;20035;-72
2021/04/20 05:12:38;;;;;;;13.05;8.48;;;12.30;56.20;;;;;;4993207;28;20020;-72
2021/04/20 05:15:13;;;;;;;11.23;7.18;;;12.30;56.30;;;;;;4993383;28;20430;-72
2021/04/20 05:17:41;;;;;;;13.13;8.35;;;12.30;56.20;;;;;;4991185;28;20026;-73
2021/04/20 05:20:13;;;;;;;12.32;8.43;;;12.30;56.30;;;;;;4993157;28;20022;-73
2021/04/20 05:22:39;;;;;;;13.57;7.63;;;12.30;56.40;;;;;;5024560;28;20029;-72
2021/04/20 05:25:07;;;;;;;16.48;9.80;;;12.30;56.40;;;;;;4992782;28;20045;-73
2021/04/20 05:27:34;;;;;;;23.20;15.80;;;12.30;56.70;;;;;;4992455;28;20022;-72
2021/04/20 05:30:00;;;;;;;16.80;11.65;;;12.30;56.90;;;;;;4992476;28;20109;-73
2021/04/20 05:32:27;;;;;;;14.88;9.35;;;12.30;57.00;;;;;;4992180;28;20058;-72
2021/04/20 05:34:53;;;;;;;14.60;9.25;;;12.40;56.90;;;;;;5023397;28;20033;-71
2021/04/20 05:37:32;;;;;;;12.50;8.88;;;12.40;56.80;;;;;;4991628;28;20033;-70
2021/04/20 05:40:04;;;;;;;14.85;9.02;;;12.50;56.80;;;;;;4990498;28;20030;-72
2021/04/20 05:42:30;;;;;;;12.63;8.30;;;12.50;56.70;;;;;;4991890;28;20057;-74
2021/04/20 05:45:00;;;;;;;11.13;6.85;;;12.60;56.60;;;;;;5023186;28;20061;-74
2021/04/20 05:47:26;;;;;;;12.18;7.90;;;12.60;56.30;;;;;;4991749;28;20058;-73
2021/04/20 05:49:58;;;;;;;12.35;8.18;;;12.70;56.10;;;;;;4990982;28;20030;-73
2021/04/20 05:52:25;;;;;;;12.10;7.40;;;12.70;56.00;;;;;;4991150;28;20018;-73
2021/04/20 05:54:56;;;;;;;14.45;7.60;;;12.70;56.10;;;;;;4990958;28;20562;-74
2021/04/20 05:57:24;;;;;;;13.00;7.60;;;12.70;56.10;;;;;;4989898;28;20430;-74
2021/04/20 05:59:57;;;;;;;11.13;7.18;;;12.60;57.10;;;;;;4988371;28;20061;-73
2021/04/20 06:02:29;;;;;;;12.98;7.82;;;12.70;56.20;;;;;;5008335;28;20408;-74
2021/04/20 06:04:59;;;;;;;13.57;7.35;;;12.60;56.10;;;;;;4986782;28;20483;-73
2021/04/20 06:07:26;;;;;;;10.88;7.40;;;12.70;56.20;;;;;;4987225;28;20037;-73
2021/04/20 06:09:53;;;;;;;11.40;6.95;;;12.60;56.20;;;;;;4987822;28;20022;-73
2021/04/20 06:12:20;;;;;;;11.30;7.30;;;12.70;56.20;;;;;;4986449;28;20034;-71
2021/04/20 06:14:50;;;;;;;12.10;7.78;;;12.70;56.20;;;;;;4987998;28;20033;-72
2021/04/20 06:17:17;;;;;;;12.70;7.50;;;12.70;56.30;;;;;;4985450;28;20041;-71
2021/04/20 06:19:44;;;;;;;12.68;8.10;;;12.70;56.20;;;;;;4987458;28;20030;-70
2021/04/20 06:22:14;;;;;;;15.10;8.30;;;12.70;56.30;;;;;;4988187;28;20034;-72
2021/04/20 06:24:41;;;;;;;13.68;7.93;;;12.70;56.30;;;;;;4986229;28;20018;-72
2021/04/20 06:27:07;;;;;;;12.65;7.78;;;12.80;56.10;;;;;;4988001;28;20034;-71
2021/04/20 06:29:34;;;;;;;11.57;6.82;;;12.80;56.20;;;;;;4987614;28;20049;-72
2021/04/20 06:32:00;;;;;;;15.75;8.98;;;12.90;56.20;;;;;;4984880;28;20482;-72
2021/04/20 06:34:28;;;;;;;14.80;8.73;;;12.90;56.20;;;;;;4988439;28;20058;-72
2021/04/20 06:36:54;;;;;;;16.77;8.95;;;13.00;56.10;;;;;;4990677;28;20415;-72
2021/04/20 06:39:21;;;;;;;13.07;7.38;;;13.00;56.00;;;;;;4990906;28;20376;-71
2021/04/20 06:41:56;;;;;;;12.13;7.32;;;13.10;56.00;;;;;;4991064;28;20045;-71
2021/04/20 06:44:46;;;;;;;14.30;7.32;;;13.10;55.80;;;;;;5022665;28;20037;-70
2021/04/20 06:47:19;;;;;;;13.85;7.10;;;13.10;55.70;;;;;;4988960;28;20041;-71
2021/04/20 06:50:01;;;;;;;14.80;8.38;;;13.20;55.80;;;;;;4994874;28;20115;-71
2021/04/20 06:52:34;;;;;;;12.55;7.30;;;13.20;55.80;;;;;;4993836;28;20022;-72
2021/04/20 06:55:06;;;;;;;17.60;10.07;;;13.20;55.70;;;;;;4988830;28;20141;-72
2021/04/20 06:57:39;;;;;;;21.23;10.77;;;13.30;55.80;;;;;;4994917;28;20038;-71
2021/04/20 07:00:16;;;;;;;23.13;13.48;;;13.30;55.90;;;;;;4994827;28;20030;-71
2021/04/20 07:03:10;;;;;;;19.60;10.40;;;13.40;56.00;;;;;;4983367;28;20026;-71
2021/04/20 07:05:39;;;;;;;18.67;11.73;;;13.50;55.90;;;;;;4989825;28;20424;-72
2021/04/20 07:08:18;;;;;;;22.58;13.38;;;13.60;55.80;;;;;;4992006;28;20030;-72
2021/04/20 07:10:45;;;;;;;15.88;9.77;;;13.70;55.50;;;;;;5025815;28;20034;-72
2021/04/20 07:13:16;;;;;;;13.85;8.52;;;13.70;55.10;;;;;;4994441;28;20398;-71
2021/04/20 07:15:57;;;;;;;14.80;8.63;;;13.90;55.00;;;;;;5024300;28;20018;-72
2021/04/20 07:18:32;;;;;;;;;;;14.20;54.80;;;;;;5024161;28;20034;-73
2021/04/20 07:21:04;;;;;;;14.02;8.30;;;14.40;54.20;;;;;;4994496;28;19909;-74
2021/04/20 07:24:07;;;;;;;15.63;8.57;;;14.60;53.40;;;;;;4994561;28;20025;-73
2021/04/20 07:26:51;;;;;;;13.90;8.25;;;14.60;52.90;;;;;;5006504;28;20026;-74
2021/04/20 07:29:30;;;;;;;13.55;7.35;;;14.70;52.60;;;;;;4992930;28;20023;-74
2021/04/20 07:32:21;;;;;;;13.98;8.25;;;14.70;52.50;;;;;;4991973;28;20274;-73
2021/04/20 07:34:58;;;;;;;17.17;10.68;;;14.80;52.40;;;;;;4992597;28;20026;-72
2021/04/20 07:37:30;;;;;;;13.60;8.32;;;14.70;52.10;;;;;;4993440;28;20038;-73
2021/04/20 07:40:12;;;;;;;12.68;7.95;;;14.70;52.10;;;;;;4992473;28;20054;-72
2021/04/20 07:43:16;;;;;;;12.32;7.40;;;14.70;52.10;;;;;;4993455;28;20023;-73
2021/04/20 07:46:15;;;;;;;12.95;7.07;;;14.70;52.10;;;;;;4990501;28;20027;-73
2021/04/20 07:48:41;;;;;;;14.15;7.70;;;14.90;52.30;;;;;;4991519;28;20033;-73
2021/04/20 07:51:12;;;;;;;19.48;11.55;;;15.20;52.20;;;;;;4992976;28;20035;-73
2021/04/20 07:53:52;;;;;;;18.13;11.93;;;15.70;51.10;;;;;;5024534;28;20041;-73
2021/04/20 07:56:33;;;;;;;15.40;9.90;;;16.40;48.70;;;;;;4990179;28;20514;-73
2021/04/20 07:59:08;;;;;;;14.10;8.55;;;17.00;48.30;;;;;;5021412;28;20422;-73
2021/04/20 08:01:41;;;;;;;19.92;9.15;;;17.70;46.80;;;;;;4992331;28;20038;-75
2021/04/20 08:04:31;;;;;;;18.20;9.95;;;18.50;45.30;;;;;;4992679;28;20402;-75
2021/04/20 08:07:05;;;;;;;16.23;8.95;;;19.20;42.50;;;;;;4991837;28;20553;-75
2021/04/20 08:09:35;;;;;;;16.85;10.00;;;19.60;42.50;;;;;;4980915;28;20034;-75
2021/04/20 08:12:07;;;;;;;17.92;11.18;;;20.10;41.00;;;;;;4986907;28;20019;-75
2021/04/20 08:14:59;;;;;;;19.92;10.73;;;20.00;38.50;;;;;;4993323;28;20022;-75
2021/04/20 08:17:28;;;;;;;14.25;8.32;;;19.90;39.30;;;;;;4993564;28;20027;-75
2021/04/20 08:20:25;;;;;;;17.83;9.07;;;20.20;39.70;;;;;;4991707;28;20030;-75
2021/04/20 08:22:53;;;;;;;15.00;9.20;;;20.70;39.10;;;;;;4994021;28;20541;-76
2021/04/20 08:25:33;;;;;;;22.33;10.82;;;21.30;37.80;;;;;;4993551;28;20050;-76
2021/04/20 08:28:18;;;;;;;16.85;9.20;;;21.70;35.90;;;;;;4992098;28;20389;-75
2021/04/20 08:30:59;;;;;;;16.75;9.93;;;22.00;36.00;;;;;;4993291;28;20289;-75
2021/04/20 08:33:29;;;;;;;15.43;8.10;;;22.20;34.50;;;;;;4993392;28;20054;-74
2021/04/20 08:35:59;;;;;;;19.45;10.23;;;22.30;35.30;;;;;;4992482;28;20030;-75
2021/04/20 08:38:52;;;;;;;16.70;9.40;;;22.80;33.60;;;;;;4993562;28;20032;-75
2021/04/20 08:41:25;;;;;;;17.25;8.75;;;22.60;32.90;;;;;;4986541;28;20030;-75
2021/04/20 08:44:14;;;;;;;18.23;8.80;;;22.70;33.10;;;;;;4992280;28;20019;-75
2021/04/20 08:47:07;;;;;;;16.05;9.43;;;22.60;32.00;;;;;;4992761;28;20561;-74
2021/04/20 08:49:45;;;;;;;16.88;9.20;;;22.10;32.10;;;;;;4992677;28;20065;-75
2021/04/20 08:52:48;;;;;;;21.17;10.38;;;21.60;33.60;;;;;;4992671;28;20015;-75
2021/04/20 08:55:28;;;;;;;19.00;10.80;;;21.30;33.50;;;;;;4990561;28;20064;-74
2021/04/20 08:58:28;;;;;;;17.48;10.10;;;20.80;34.80;;;;;;5023334;28;20534;-74
2021/04/20 09:01:24;;;;;;;14.48;8.40;;;20.80;35.80;;;;;;4986932;28;20039;-71
2021/04/20 09:03:59;;;;;;;16.10;8.85;;;21.60;35.50;;;;;;5022072;28;20039;-71
2021/04/20 09:06:31;;;;;;;15.25;7.80;;;22.50;33.10;;;;;;5024076;28;20057;-71
2021/04/20 09:09:05;;;;;;;20.90;10.13;;;23.10;31.90;;;;;;4992397;28;20475;-71
2021/04/20 09:11:37;;;;;;;16.67;8.63;;;23.60;30.30;;;;;;4992321;28;20027;-71
2021/04/20 09:14:08;;;;;;;21.67;9.75;;;23.30;30.70;;;;;;4989223;28;20022;-69
2021/04/20 09:16:47;;;;;;;18.45;10.10;;;23.00;31.00;;;;;;4984050;28;20054;-72
2021/04/20 09:19:37;;;;;;;19.63;10.15;;;23.10;31.00;;;;;;4992723;28;20044;-71
2021/04/20 09:22:06;;;;;;;18.60;9.68;;;23.00;31.50;;;;;;4988667;28;20124;-73
2021/04/20 09:24:51;;;;;;;17.00;8.57;;;23.50;30.80;;;;;;4991443;28;20026;-72
2021/04/20 09:27:39;;;;;;;12.95;6.85;;;23.70;30.00;;;;;;4989558;28;20030;-72
2021/04/20 09:30:11;;;;;;;15.70;7.35;;;24.40;31.40;;;;;;4990614;28;20037;-71
2021/04/20 09:32:45;;;;;;;13.93;7.32;;;24.80;27.90;;;;;;4990333;28;20106;-72
2021/04/20 09:35:14;;;;;;;11.20;5.90;;;25.00;28.30;;;;;;4990967;28;20398;-72
2021/04/20 09:37:42;;;;;;;16.50;9.02;;;25.60;28.30;;;;;;5006647;28;20034;-72
2021/04/20 09:40:12;;;;;;;10.73;6.00;;;26.00;27.10;;;;;;4991780;28;20027;-72
2021/04/20 09:42:41;;;;;;;11.73;5.43;;;26.40;27.60;;;;;;4992511;28;20030;-72
2021/04/20 09:45:19;;;;;;;14.82;8.18;;;26.90;27.30;;;;;;4991516;28;20030;-72
2021/04/20 09:48:16;;;;;;;13.02;7.28;;;27.50;26.90;;;;;;4989205;28;20037;-69
2021/04/20 09:50:57;;;;;;;17.77;8.85;;;28.10;25.90;;;;;;4988600;28;20028;-73
2021/04/20 09:53:34;;;;;;;17.45;8.50;;;28.20;23.90;;;;;;4989408;28;20022;-73
2021/04/20 09:56:03;;;;;;;16.75;9.02;;;27.30;24.90;;;;;;4991251;28;20030;-73
2021/04/20 09:58:32;;;;;;;21.88;9.80;;;26.80;25.20;;;;;;4991969;28;20026;-73
2021/04/20 10:01:10;;;;;;;18.10;9.10;;;26.30;25.70;;;;;;4992224;28;20030;-73
2021/04/20 10:03:52;;;;;;;15.63;8.23;;;25.90;25.60;;;;;;4991261;28;20037;-73
2021/04/20 10:06:36;;;;;;;19.88;10.15;;;24.90;25.90;;;;;;4991093;28;20029;-73
2021/04/20 10:09:21;;;;;;;19.75;8.82;;;24.20;27.20;;;;;;4988485;28;20038;-73
2021/04/20 10:12:01;;;;;;;18.10;8.63;;;23.30;28.20;;;;;;4985316;28;20046;-73
2021/04/20 10:14:31;;;;;;;;;;;22.30;29.40;;;;;;4989067;28;20032;-73
2021/04/20 10:17:16;;;;;;;19.40;8.93;;;21.90;30.70;;;;;;4987085;28;20004;-73
2021/04/20 10:19:48;;;;;;;18.52;7.90;;;21.20;31.00;;;;;;4987970;28;20022;-72
2021/04/20 10:22:33;;;;;;;17.83;8.23;;;20.60;31.10;;;;;;4987501;28;20034;-73
2021/04/20 10:25:02;;;;;;;17.35;8.52;;;20.40;32.10;;;;;;4982885;28;20030;-73
2021/04/20 10:27:29;;;;;;;14.48;7.25;;;20.20;32.50;;;;;;4988428;28;20038;-71
2021/04/20 10:30:17;;;;;;;16.70;7.68;;;20.20;32.70;;;;;;4988463;28;20106;-71
2021/04/20 10:32:53;;;;;;;15.60;7.78;;;20.50;32.70;;;;;;5016023;28;20035;-72
2021/04/20 10:35:39;;;;;;;14.57;7.47;;;20.70;32.20;;;;;;4986569;28;20023;-74
2021/04/20 10:38:17;;;;;;;16.20;8.05;;;20.80;32.50;;;;;;5018919;28;20080;-74
2021/04/20 10:40:46;;;;;;;15.38;7.93;;;21.10;32.30;;;;;;4986566;28;20041;-72
2021/04/20 10:43:22;;;;;;;15.10;7.40;;;21.00;30.30;;;;;;4987983;28;20037;-70
2021/04/20 10:45:50;;;;;;;17.65;8.57;;;20.60;30.70;;;;;;4985607;28;20397;-70
2021/04/20 10:48:24;;;;;;;14.30;8.60;;;20.40;32.10;;;;;;4987065;28;20045;-70
2021/04/20 10:50:53;;;;;;;14.25;8.13;;;20.40;31.30;;;;;;4986607;28;20618;-72
2021/04/20 10:53:34;;;;;;;16.65;8.05;;;20.10;32.00;;;;;;4987005;28;20514;-69
2021/04/20 10:56:12;;;;;;;14.93;8.23;;;19.80;30.80;;;;;;4987281;28;20140;-72
2021/04/20 10:58:44;;;;;;;11.95;7.32;;;19.70;32.10;;;;;;4988417;28;20606;-71
2021/04/20 11:01:22;;;;;;;15.30;8.88;;;19.70;32.80;;;;;;4986420;28;20042;-69
2021/04/20 11:03:53;;;;;;;13.25;7.35;;;19.60;32.80;;;;;;4986231;28;20034;-69
2021/04/20 11:06:57;;;;;;;13.65;6.93;;;19.40;32.80;;;;;;5019277;28;20443;-69
2021/04/20 11:09:31;;;;;;;11.98;6.43;;;19.30;33.00;;;;;;5018284;28;20034;-69
2021/04/20 11:11:57;;;;;;;12.57;6.32;;;19.40;33.00;;;;;;4988104;28;20062;-69
2021/04/20 11:14:37;;;;;;;10.90;6.18;;;19.40;31.50;;;;;;4987945;28;20030;-68
2021/04/20 11:17:05;;;;;;;10.40;4.97;;;19.40;31.60;;;;;;4988123;28;20184;-69
2021/04/20 11:19:36;;;;;;;11.20;6.28;;;19.50;31.80;;;;;;4987666;28;20030;-68
2021/04/20 11:22:03;;;;;;;12.20;6.32;;;19.50;31.80;;;;;;4986035;28;20359;-68
2021/04/20 11:24:35;;;;;;;11.88;6.32;;;19.50;31.90;;;;;;5018778;28;20515;-69
2021/04/20 11:27:09;;;;;;;11.23;6.10;;;19.40;32.50;;;;;;4988280;28;20034;-69
2021/04/20 11:29:50;;;;;;;12.35;5.82;;;19.40;32.50;;;;;;4986583;28;20026;-69
2021/04/20 11:32:20;;;;;;;9.98;4.97;;;19.40;32.70;;;;;;4988088;28;20034;-70
2021/04/20 11:34:49;;;;;;;14.00;6.40;;;19.40;33.00;;;;;;5021210;28;20027;-70
2021/04/20 11:37:21;;;;;;;11.98;6.05;;;19.30;32.20;;;;;;4991312;28;20034;-70
2021/04/20 11:40:03;;;;;;;12.57;5.60;;;19.20;32.80;;;;;;4990070;28;20076;-70
2021/04/20 11:42:49;;;;;;;13.30;6.07;;;19.10;32.40;;;;;;4991591;28;20113;-69
2021/04/20 11:45:23;;;;;;;9.95;5.28;;;19.10;32.20;;;;;;4991489;28;20022;-74
2021/04/20 11:48:05;;;;;;;12.75;6.20;;;19.00;32.60;;;;;;4990169;28;20034;-75
2021/04/20 11:50:35;;;;;;;12.68;7.30;;;19.00;33.40;;;;;;4991349;28;20073;-74
2021/04/20 11:53:06;;;;;;;10.40;5.57;;;19.00;33.80;;;;;;4990712;28;20022;-75
2021/04/20 11:55:38;;;;;;;10.32;5.40;;;18.90;33.80;;;;;;4991042;28;20037;-74
2021/04/20 11:58:08;;;;;;;10.63;5.85;;;18.90;33.40;;;;;;4990718;28;20518;-75
2021/04/20 12:00:36;;;;;;;14.45;6.55;;;18.80;34.00;;;;;;4990312;28;20042;-76
2021/04/20 12:03:18;;;;;;;10.90;4.40;;;18.80;34.10;;;;;;4988709;28;20569;-76
2021/04/20 12:05:52;;;;;;;11.30;5.47;;;18.70;34.20;;;;;;4987442;28;20038;-74
2021/04/20 12:08:36;;;;;;;9.93;5.22;;;18.70;34.70;;;;;;4989886;28;20037;-75
2021/04/20 12:11:08;;;;;;;11.85;6.75;;;18.70;35.00;;;;;;4990288;28;20030;-75
2021/04/20 12:13:36;;;;;;;10.60;5.75;;;18.70;34.70;;;;;;5011715;28;20435;-74
2021/04/20 12:16:08;;;;;;;10.02;4.70;;;18.60;34.90;;;;;;4988790;28;20114;-75
2021/04/20 12:18:36;;;;;;;9.05;4.80;;;18.60;35.60;;;;;;4990971;28;20037;-75
2021/04/20 12:21:07;;;;;;;8.85;4.65;;;18.70;36.10;;;;;;4988597;28;20121;-75
2021/04/20 12:23:38;;;;;;;12.55;7.50;;;18.70;36.80;;;;;;4989884;28;20030;-76
2021/04/20 12:26:06;;;;;;;12.68;6.57;;;18.60;34.50;;;;;;4990214;28;20031;-76
2021/04/20 12:28:37;;;;;;;10.95;6.50;;;18.50;34.60;;;;;;4990255;28;20484;-75
2021/04/20 12:31:03;;;;;;;10.00;6.05;;;18.50;34.50;;;;;;4989933;28;20034;-74
2021/04/20 12:33:32;;;;;;;13.02;7.00;;;18.50;34.80;;;;;;4990440;28;20027;-74
2021/04/20 12:36:00;;;;;;;11.02;5.97;;;18.40;34.30;;;;;;4990206;28;20026;-76
2021/04/20 12:38:31;;;;;;;9.93;5.10;;;18.40;35.10;;;;;;4989627;28;20033;-76
2021/04/20 12:41:03;;;;;;;9.05;4.68;;;18.40;35.30;;;;;;5021012;28;20394;-77
2021/04/20 12:43:34;;;;;;;14.60;7.80;;;18.40;36.00;;;;;;4989910;28;20038;-76
2021/04/20 12:46:11;;;;;;;13.57;8.98;;;18.40;36.20;;;;;;4991025;28;20030;-76
2021/04/20 12:48:41;;;;;;;25.67;19.65;;;18.40;36.20;;;;;;4990641;28;20045;-76
2021/04/20 12:51:15;;;;;;;17.73;10.98;;;18.30;36.60;;;;;;4989715;28;20529;-76
2021/04/20 12:53:46;;;;;;;15.13;7.40;;;18.30;37.00;;;;;;4988964;28;20113;-76
2021/04/20 12:56:38;;;;;;;19.55;11.57;;;18.30;36.30;;;;;;4990396;28;20052;-76
2021/04/20 12:59:08;;;;;;;13.20;8.57;;;18.20;36.60;;;;;;4990190;28;20038;-76
2021/04/20 13:01:36;;;;;;;12.20;6.88;;;18.20;37.00;;;;;;4989804;28;20457;-75
2021/04/20 13:04:04;;;;;;;12.70;7.10;;;18.20;37.70;;;;;;4988931;28;20034;-76